createdAt,value
2019-05-07T00:02:25.323Z,102112.41
2019-05-07T00:04:54.706Z,102108.89
2019-05-07T00:07:23.913Z,102110.17
2019-05-07T00:09:53.156Z,102109.48
2019-05-07T00:12:23.028Z,102108.64
2019-05-07T00:15:00.875Z,102109.06
2019-05-07T00:17:23.411Z,102107.59
2019-05-07T00:19:52.781Z,102105.92
2019-05-07T00:22:22.773Z,102108.31
2019-05-07T00:24:52.325Z,102107.26
2019-05-07T00:27:22.624Z,102106.15
2019-05-07T00:29:52.084Z,102102.42
2019-05-07T00:32:22.124Z,102103.29
2019-05-07T00:34:55.677Z,102108.05
2019-05-07T00:37:32.340Z,102106.54
2019-05-07T00:40:19.426Z,102105.59
2019-05-07T00:43:05.011Z,102108.03
2019-05-07T00:45:35.885Z,102111.09
2019-05-07T00:48:05.059Z,102110.11
2019-05-07T00:50:35.870Z,102110.21
2019-05-07T00:53:05.117Z,102103.05
2019-05-07T00:58:42.943Z,102102.61
2019-05-07T01:01:13.045Z,102106.67
2019-05-07T01:03:42.549Z,102108.02
2019-05-07T01:06:12.878Z,102105.02
2019-05-07T01:08:43.055Z,102102.47
2019-05-07T01:11:13.171Z,102100.16
2019-05-07T01:13:43.351Z,102099.92
2019-05-07T01:16:13.388Z,102097.20
2019-05-07T01:18:42.716Z,102096.32
2019-05-07T01:21:13.215Z,102093.04
2019-05-07T01:23:42.772Z,102098.20
2019-05-07T01:26:12.501Z,102090.21
2019-05-07T01:29:02.466Z,102085.89
2019-05-07T01:31:33.486Z,102085.02
2019-05-07T01:34:16.304Z,102085.30
2019-05-07T01:36:45.582Z,102088.97
2019-05-07T01:39:14.740Z,102088.52
2019-05-07T01:41:44.702Z,102099.56
2019-05-07T01:44:14.142Z,102096.69
2019-05-07T01:46:43.358Z,102093.30
2019-05-07T01:49:12.761Z,102096.92
2019-05-07T01:54:33.475Z,102091.81
2019-05-07T01:57:03.128Z,102095.86
2019-05-07T01:59:32.459Z,102091.94
2019-05-07T02:02:05.908Z,102085.40
2019-05-07T02:04:39.167Z,102090.05
2019-05-07T02:07:12.460Z,102091.22
2019-05-07T02:09:49.277Z,102089.84
2019-05-07T02:12:59.113Z,102086.20
2019-05-07T02:18:01.979Z,102085.98
2019-05-07T02:23:02.909Z,102087.09
2019-05-07T02:25:33.024Z,102092.33
2019-05-07T02:28:02.391Z,102089.37
2019-05-07T02:30:34.750Z,102088.61
2019-05-07T02:33:03.815Z,102089.91
2019-05-07T02:35:33.652Z,102085.42
2019-05-07T02:38:04.614Z,102088.84
2019-05-07T02:40:53.600Z,102085.05
2019-05-07T02:43:22.983Z,102084.36
2019-05-07T02:45:56.632Z,102084.34
2019-05-07T02:48:27.430Z,102082.73
2019-05-07T02:51:03.890Z,102078.76
2019-05-07T02:53:33.932Z,102079.09
2019-05-07T02:56:04.527Z,102070.05
2019-05-07T02:58:33.370Z,102072.19
2019-05-07T03:01:04.789Z,102071.88
2019-05-07T03:03:33.832Z,102071.86
2019-05-07T03:06:03.252Z,102071.35
2019-05-07T03:08:33.335Z,102068.33
2019-05-07T03:11:03.353Z,102071.51
2019-05-07T03:13:33.765Z,102073.44
2019-05-07T03:16:03.863Z,102072.18
2019-05-07T03:18:33.689Z,102066.45
2019-05-07T03:21:04.628Z,102064.55
2019-05-07T03:23:53.897Z,102068.49
2019-05-07T03:26:26.672Z,102069.70
2019-05-07T03:28:57.503Z,102068.11
2019-05-07T03:31:36.024Z,102067.19
2019-05-07T03:34:16.688Z,102064.70
2019-05-07T03:36:48.952Z,102056.73
2019-05-07T03:39:18.527Z,102061.16
2019-05-07T03:41:47.695Z,102059.42
2019-05-07T03:44:34.649Z,102055.41
2019-05-07T03:47:17.463Z,102055.89
2019-05-07T03:49:46.881Z,102053.24
2019-05-07T03:52:16.631Z,102051.37
2019-05-07T03:54:45.873Z,102049.52
2019-05-07T03:57:15.991Z,102047.44
2019-05-07T03:59:45.353Z,102047.55
2019-05-07T04:02:14.538Z,102041.34
2019-05-07T04:04:43.707Z,102044.53
2019-05-07T04:07:13.878Z,102046.95
2019-05-07T04:09:43.922Z,102044.65
2019-05-07T04:12:13.476Z,102041.80
2019-05-07T04:14:43.385Z,102045.03
2019-05-07T04:17:17.236Z,102043.50
2019-05-07T04:19:44.136Z,102045.92
2019-05-07T04:22:14.059Z,102038.52
2019-05-07T04:24:53.738Z,102038.58
2019-05-07T04:27:24.549Z,102034.31
2019-05-07T04:29:53.923Z,102034.91
2019-05-07T04:32:24.725Z,102033.59
2019-05-07T04:35:07.447Z,102032.71
2019-05-07T04:37:36.592Z,102032.34
2019-05-07T04:40:06.565Z,102031.79
2019-05-07T04:42:35.779Z,102029.14
2019-05-07T04:45:08.737Z,102034.02
2019-05-07T04:47:43.152Z,102026.83
2019-05-07T04:50:13.898Z,102025.07
2019-05-07T04:53:02.610Z,102025.87
2019-05-07T04:55:33.197Z,102026.91
2019-05-07T04:58:02.989Z,102027.78
2019-05-07T05:00:33.743Z,102020.36
2019-05-07T05:03:16.474Z,102025.37
2019-05-07T05:08:52.163Z,102023.20
2019-05-07T05:16:45.264Z,102023.26
2019-05-07T05:19:34.033Z,102017.59
2019-05-07T05:22:12.784Z,102021.77
2019-05-07T05:24:44.622Z,102020.88
2019-05-07T05:27:17.154Z,102015.89
2019-05-07T05:29:46.592Z,102016.84
2019-05-07T05:32:18.552Z,102014.70
2019-05-07T05:34:47.812Z,102017.50
2019-05-07T05:37:17.094Z,102016.08
2019-05-07T05:39:46.398Z,102014.98
2019-05-07T05:42:19.895Z,102011.31
2019-05-07T05:44:52.442Z,102009.75
2019-05-07T05:47:22.164Z,102005.30
2019-05-07T05:49:53.404Z,102012.27
2019-05-07T05:52:28.196Z,102011.48
2019-05-07T05:56:43.617Z,102015.45
2019-05-07T05:57:43.117Z,102016.00
2019-05-07T06:18:20.864Z,102008.00
2019-05-07T06:23:22.566Z,102011.83
2019-05-07T06:25:52.472Z,102007.16
2019-05-07T06:28:22.502Z,102010.59
2019-05-07T06:30:52.729Z,102010.22
2019-05-07T06:33:23.165Z,102015.20
2019-05-07T06:35:52.612Z,102014.13
2019-05-07T06:38:23.985Z,102016.04
2019-05-07T06:41:03.635Z,102012.70
2019-05-07T06:43:37.400Z,102024.25
2019-05-07T06:46:07.286Z,102019.43
2019-05-07T06:56:38.219Z,102014.42
2019-05-07T06:59:09.076Z,102007.89
2019-05-07T07:01:42.196Z,102011.10
2019-05-07T07:04:15.076Z,102007.89
2019-05-07T07:06:48.734Z,102005.19
2019-05-07T07:09:32.948Z,102005.15
2019-05-07T07:12:12.943Z,102007.37
2019-05-07T07:14:42.527Z,102001.98
2019-05-07T07:17:12.936Z,102004.20
2019-05-07T07:19:42.825Z,101998.48
2019-05-07T07:22:12.953Z,101999.99
2019-05-07T07:32:35.740Z,102001.72
2019-05-07T07:56:48.874Z,101987.33
2019-05-07T08:11:10.086Z,101986.30
2019-05-07T08:13:52.897Z,101979.00
2019-05-07T08:16:33.826Z,101971.66
2019-05-07T08:21:42.031Z,101969.05
2019-05-07T08:24:17.465Z,101973.59
2019-05-07T08:26:54.866Z,101969.40
2019-05-07T08:29:25.982Z,101967.36
2019-05-07T08:32:02.390Z,101967.21
2019-05-07T08:34:33.924Z,101964.88
2019-05-07T08:37:04.980Z,101962.35
2019-05-07T08:39:38.402Z,101958.66
2019-05-07T08:42:12.302Z,101961.08
2019-05-07T08:45:05.654Z,101954.98
2019-05-07T08:47:42.537Z,101947.96
2019-05-07T08:50:16.201Z,101949.08
2019-05-07T08:52:46.727Z,101950.75
2019-05-07T08:55:16.431Z,101942.05
2019-05-07T08:57:46.619Z,101938.63
2019-05-07T09:00:23.702Z,101939.65
2019-05-07T09:03:04.019Z,101934.16
2019-05-07T09:05:35.928Z,101930.44
2019-05-07T09:08:12.607Z,101923.00
2019-05-07T09:10:44.792Z,101923.86
2019-05-07T09:13:19.125Z,101923.39
2019-05-07T09:15:52.852Z,101920.45
2019-05-07T09:18:32.186Z,101918.27
2019-05-07T09:21:02.743Z,101912.64
2019-05-07T09:23:37.920Z,101908.58
2019-05-07T09:26:09.900Z,101908.14
2019-05-07T09:28:52.356Z,101906.45
2019-05-07T09:31:26.243Z,101903.58
2019-05-07T09:34:02.647Z,101901.46
2019-05-07T09:36:34.987Z,101895.79
2019-05-07T09:39:05.837Z,101897.95
2019-05-07T09:41:35.351Z,101894.87
2019-05-07T09:44:08.307Z,101892.89
2019-05-07T09:49:22.282Z,101889.11
2019-05-07T09:51:52.030Z,101880.97
2019-05-07T09:54:23.095Z,101887.05
2019-05-07T09:56:52.739Z,101883.53
2019-05-07T10:01:58.273Z,101877.70
2019-05-07T10:16:58.414Z,101853.87
2019-05-07T10:19:28.033Z,101855.78
2019-05-07T10:22:02.308Z,101856.58
2019-05-07T11:14:32.149Z,101808.05
2019-05-07T11:17:03.112Z,101809.51
2019-05-07T11:19:32.512Z,101800.56
2019-05-07T11:22:02.034Z,101804.09
2019-05-07T11:24:32.102Z,101804.25
2019-05-07T11:27:02.422Z,101791.44
2019-05-07T11:29:33.072Z,101790.78
2019-05-07T11:32:02.874Z,101796.03
2019-05-07T11:34:33.678Z,101784.90
2019-05-07T11:37:03.220Z,101786.06
2019-05-07T11:45:27.322Z,101781.55
2019-05-07T11:47:56.865Z,101777.16
2019-05-07T11:50:32.852Z,101774.52
2019-05-07T11:53:06.292Z,101776.39
2019-05-07T11:58:28.194Z,101770.02
2019-05-07T12:01:03.995Z,101770.80
2019-05-07T12:03:33.595Z,101757.81
2019-05-07T12:14:02.828Z,101753.71
2019-05-07T12:16:32.951Z,101751.78
2019-05-07T12:58:56.918Z,101717.25
2019-05-07T13:01:36.671Z,101718.88
2019-05-07T13:04:07.992Z,101719.16
2019-05-07T13:09:16.342Z,101717.02
2019-05-07T14:17:27.009Z,101640.06
2019-05-07T14:19:56.271Z,101631.77
2019-05-07T14:22:25.467Z,101633.67
2019-05-07T14:24:54.712Z,101638.14
2019-05-07T14:27:23.964Z,101630.64
2019-05-07T14:29:53.152Z,101624.97
2019-05-07T14:32:29.944Z,101625.79
2019-05-07T14:35:06.493Z,101627.17
2019-05-07T14:37:41.858Z,101627.34
2019-05-07T14:40:12.892Z,101625.34
2019-05-07T14:42:46.451Z,101627.53
2019-05-07T14:45:15.726Z,101623.84
2019-05-07T14:47:45.111Z,101617.45
2019-05-07T14:50:14.412Z,101609.80
2019-05-07T14:52:43.916Z,101608.11
2019-05-07T14:55:13.145Z,101607.03
2019-05-07T14:57:42.584Z,101603.13
2019-05-07T15:00:12.382Z,101601.38
2019-05-07T15:02:42.113Z,101595.33
2019-05-07T15:05:12.157Z,101593.89
2019-05-07T15:07:41.592Z,101590.83
2019-05-07T15:10:10.951Z,101580.48
2019-05-07T15:12:40.175Z,101575.59
2019-05-07T15:15:09.623Z,101575.02
2019-05-07T15:17:41.950Z,101571.59
2019-05-07T15:20:11.243Z,101573.22
2019-05-07T15:22:52.695Z,101570.02
2019-05-07T15:25:22.674Z,101572.79
2019-05-07T15:27:52.737Z,101577.06
2019-05-07T15:30:23.170Z,101570.12
2019-05-07T15:32:52.395Z,101564.49
2019-05-07T15:35:21.622Z,101560.61
2019-05-07T15:37:51.798Z,101562.98
2019-05-07T15:40:22.534Z,101549.34
2019-05-07T15:42:52.482Z,101549.85
2019-05-07T15:45:21.871Z,101538.84
2019-05-07T15:47:52.743Z,101538.14
2019-05-07T15:50:23.558Z,101533.99
2019-05-07T15:52:58.780Z,101532.47
2019-05-07T15:55:28.127Z,101530.37
2019-05-07T15:57:58.089Z,101521.80
2019-05-07T16:00:33.523Z,101523.78
2019-05-07T16:03:12.078Z,101519.03
2019-05-07T16:05:42.464Z,101513.59
2019-05-07T16:08:13.724Z,101512.75
2019-05-07T16:10:42.924Z,101518.26
2019-05-07T16:13:13.882Z,101510.69
2019-05-07T16:15:43.147Z,101507.98
2019-05-07T16:18:23.854Z,101508.38
2019-05-07T16:20:53.313Z,101512.21
2019-05-07T16:23:22.534Z,101506.92
2019-05-07T16:25:52.782Z,101508.45
2019-05-07T16:28:22.086Z,101502.98
2019-05-07T16:30:52.161Z,101502.04
2019-05-07T16:33:21.428Z,101504.14
2019-05-07T16:35:50.604Z,101502.44
2019-05-07T16:38:21.990Z,101500.15
2019-05-07T16:40:52.184Z,101495.76
2019-05-07T16:43:22.366Z,101493.66
2019-05-07T16:45:51.832Z,101489.31
2019-05-07T16:48:23.085Z,101488.10
2019-05-07T16:50:52.352Z,101483.22
2019-05-07T16:53:29.322Z,101484.09
2019-05-07T16:55:52.452Z,101480.73
2019-05-07T16:58:26.436Z,101484.41
2019-05-07T17:01:03.240Z,101481.25
2019-05-07T17:03:42.590Z,101479.98
2019-05-07T17:06:12.449Z,101479.94
2019-05-07T17:08:51.705Z,101477.38
2019-05-07T17:11:22.645Z,101476.69
2019-05-07T17:13:52.042Z,101471.20
2019-05-07T17:16:22.841Z,101469.81
2019-05-07T17:18:52.124Z,101477.92
2019-05-07T17:21:21.868Z,101472.75
2019-05-07T17:23:51.929Z,101469.61
2019-05-07T17:26:23.043Z,101465.72
2019-05-07T17:28:52.211Z,101459.13
2019-05-07T17:31:22.931Z,101455.16
2019-05-07T17:33:52.286Z,101458.09
2019-05-07T17:36:22.452Z,101455.22
2019-05-07T17:38:52.006Z,101450.99
2019-05-07T17:41:26.535Z,101453.05
2019-05-07T17:43:52.272Z,101452.11
2019-05-07T17:46:21.825Z,101450.14
2019-05-07T17:48:52.360Z,101447.12
2019-05-07T17:51:38.441Z,101446.80
2019-05-07T17:54:07.649Z,101440.78
2019-05-07T17:56:37.622Z,101438.50
2019-05-07T17:59:06.800Z,101437.24
2019-05-07T18:01:50.029Z,101433.56
2019-05-07T18:04:17.852Z,101436.38
2019-05-07T18:06:47.147Z,101431.88
2019-05-07T18:09:16.474Z,101428.83
2019-05-07T18:11:45.726Z,101428.65
2019-05-07T18:14:14.919Z,101424.91
2019-05-07T18:16:57.849Z,101423.05
2019-05-07T18:19:28.668Z,101430.86
2019-05-07T18:21:57.835Z,101424.59
2019-05-07T18:24:27.053Z,101424.81
2019-05-07T18:26:56.288Z,101420.53
2019-05-07T18:29:25.480Z,101416.36
2019-05-07T18:31:59.337Z,101416.66
2019-05-07T18:34:28.602Z,101419.16
2019-05-07T18:36:58.361Z,101417.56
2019-05-07T18:39:27.537Z,101419.79
2019-05-07T18:41:56.729Z,101414.08
2019-05-07T18:44:25.921Z,101414.73
2019-05-07T18:46:55.120Z,101414.42
2019-05-07T18:49:24.316Z,101413.98
2019-05-07T18:51:53.475Z,101417.90
2019-05-07T18:54:30.450Z,101416.84
2019-05-07T18:56:53.850Z,101411.88
2019-05-07T18:59:24.797Z,101408.50
2019-05-07T19:01:54.074Z,101412.52
2019-05-07T19:04:23.280Z,101413.86
2019-05-07T19:06:52.511Z,101410.09
2019-05-07T19:09:22.528Z,101416.37
2019-05-07T19:11:52.396Z,101414.38
2019-05-07T19:14:22.640Z,101405.30
2019-05-07T19:16:52.677Z,101407.69
2019-05-07T19:19:22.417Z,101412.81
2019-05-07T19:21:53.050Z,101411.69
2019-05-07T19:24:26.011Z,101407.70
2019-05-07T19:26:53.431Z,101412.20
2019-05-07T19:29:23.369Z,101412.14
2019-05-07T19:31:52.883Z,101412.97
2019-05-07T19:34:22.402Z,101416.80
2019-05-07T19:36:52.161Z,101419.40
2019-05-07T19:39:23.387Z,101420.93
2019-05-07T19:41:52.732Z,101421.91
2019-05-07T19:44:21.953Z,101421.56
2019-05-07T19:46:52.495Z,101416.20
2019-05-07T19:49:21.139Z,101421.98
2019-05-07T19:51:52.309Z,101420.20
2019-05-07T19:54:22.788Z,101418.05
2019-05-07T19:56:52.134Z,101415.83
2019-05-07T19:59:22.266Z,101403.44
2019-05-07T20:01:53.799Z,101392.86
2019-05-07T20:04:24.779Z,101383.08
2019-05-07T20:06:53.983Z,101388.80
2019-05-07T20:09:24.823Z,101382.05
2019-05-07T20:11:54.057Z,101374.22
2019-05-07T20:14:23.299Z,101376.22
2019-05-07T20:16:53.182Z,101375.52
2019-05-07T20:19:23.070Z,101368.66
2019-05-07T20:21:52.497Z,101366.59
2019-05-07T20:24:22.088Z,101363.98
2019-05-07T20:26:52.684Z,101362.20
2019-05-07T20:29:22.918Z,101354.30
2019-05-07T20:31:53.254Z,101354.41
2019-05-07T20:34:22.728Z,101356.67
2019-05-07T20:36:51.967Z,101347.80
2019-05-07T20:39:23.202Z,101344.72
2019-05-07T20:41:52.679Z,101343.03
2019-05-07T20:44:22.016Z,101344.97
2019-05-07T20:46:53.420Z,101341.45
2019-05-07T20:49:22.598Z,101337.17
2019-05-07T20:51:52.607Z,101338.95
2019-05-07T20:54:23.554Z,101344.78
2019-05-07T20:56:57.150Z,101345.95
2019-05-07T20:59:26.301Z,101335.59
2019-05-07T21:01:55.691Z,101336.88
2019-05-07T21:04:24.908Z,101330.45
2019-05-07T21:06:54.105Z,101325.03
2019-05-07T21:09:23.281Z,101324.30
2019-05-07T21:11:52.565Z,101323.00
2019-05-07T21:14:22.824Z,101324.80
2019-05-07T21:16:52.168Z,101322.09
2019-05-07T21:19:22.314Z,101316.22
2019-05-07T21:21:51.683Z,101310.95
2019-05-07T21:24:22.554Z,101310.11
2019-05-07T21:26:53.097Z,101301.98
2019-05-07T21:29:22.125Z,101298.67
2019-05-07T21:31:52.460Z,101290.41
2019-05-07T21:34:22.984Z,101288.23
2019-05-07T21:36:52.506Z,101291.26
2019-05-07T21:39:22.361Z,101289.27
2019-05-07T21:41:52.028Z,101297.51
2019-05-07T21:44:22.731Z,101288.37
2019-05-07T21:46:52.270Z,101277.37
2019-05-07T21:49:22.840Z,101269.19
2019-05-07T21:51:52.279Z,101271.05
2019-05-07T21:54:32.984Z,101264.90
2019-05-07T21:57:03.840Z,101262.20
2019-05-07T21:59:35.746Z,101260.41
2019-05-07T22:02:21.932Z,101260.67
2019-05-07T22:04:52.770Z,101255.27
2019-05-07T22:07:22.777Z,101252.66
2019-05-07T22:09:52.350Z,101250.33
2019-05-07T22:12:23.176Z,101246.81
2019-05-07T22:14:52.652Z,101244.75
2019-05-07T22:17:22.037Z,101244.06
2019-05-07T22:19:52.508Z,101241.29
2019-05-07T22:22:23.962Z,101246.11
2019-05-07T22:24:53.102Z,101236.87
2019-05-07T22:27:22.457Z,101229.91
2019-05-07T22:29:52.721Z,101223.51
2019-05-07T22:32:38.747Z,101213.80
2019-05-07T22:35:18.703Z,101208.77
2019-05-07T22:37:48.021Z,101206.67
2019-05-07T22:40:17.199Z,101200.63
2019-05-07T22:42:46.382Z,101198.63
2019-05-07T22:45:15.609Z,101197.47
2019-05-07T22:47:44.939Z,101190.10
2019-05-07T22:50:14.121Z,101187.41
2019-05-07T22:52:43.358Z,101182.70
2019-05-07T22:55:14.172Z,101179.77
2019-05-07T22:57:52.536Z,101174.32
2019-05-07T23:00:23.527Z,101169.80
2019-05-07T23:02:53.916Z,101166.40
2019-05-07T23:05:23.269Z,101161.33
2019-05-07T23:07:52.777Z,101163.69
2019-05-07T23:10:22.611Z,101162.22
2019-05-07T23:12:51.868Z,101157.39
2019-05-07T23:15:22.616Z,101151.45
2019-05-07T23:17:51.883Z,101154.28
2019-05-07T23:20:24.145Z,101151.95
2019-05-07T23:22:52.102Z,101144.52
2019-05-07T23:25:24.262Z,101139.14
2019-05-07T23:27:52.577Z,101140.30
2019-05-07T23:30:22.411Z,101139.47
2019-05-07T23:32:52.831Z,101132.79
2019-05-07T23:35:22.295Z,101129.09
2019-05-07T23:37:52.952Z,101128.76
2019-05-07T23:40:32.461Z,101122.53
2019-05-07T23:43:03.522Z,101122.73
2019-05-07T23:45:32.779Z,101123.59
2019-05-07T23:48:02.777Z,101123.27
2019-05-07T23:50:32.434Z,101120.72
2019-05-07T23:53:02.244Z,101121.52
2019-05-07T23:55:31.907Z,101116.72
2019-05-07T23:58:03.071Z,101115.17
